sensor_id;sensor_type;location;lat;lon;timestamp;P1;durP1;ratioP1;P2;durP2;ratioP2
18251;SDS011;26917;52.328;20.878;2022-08-06T00:01:26;29.02;;;26.48;;
18251;SDS011;26917;52.328;20.878;2022-08-06T00:07:03;27.17;;;24.75;;
18251;SDS011;26917;52.328;20.878;2022-08-06T00:09:54;30.67;;;25.00;;
18251;SDS011;26917;52.328;20.878;2022-08-06T00:12:27;28.83;;;26.27;;
18251;SDS011;26917;52.328;20.878;2022-08-06T00:15:01;25.02;;;22.83;;
18251;SDS011;26917;52.328;20.878;2022-08-06T00:17:42;26.80;;;24.23;;
18251;SDS011;26917;52.328;20.878;2022-08-06T00:20:57;28.45;;;25.70;;
18251;SDS011;26917;52.328;20.878;2022-08-06T00:23:36;28.35;;;25.02;;
18251;SDS011;26917;52.328;20.878;2022-08-06T00:26:46;25.35;;;22.80;;
18251;SDS011;26917;52.328;20.878;2022-08-06T00:34:23;25.60;;;22.90;;
18251;SDS011;26917;52.328;20.878;2022-08-06T00:36:55;29.27;;;26.63;;
18251;SDS011;26917;52.328;20.878;2022-08-06T00:43:50;29.10;;;22.98;;
18251;SDS011;26917;52.328;20.878;2022-08-06T00:46:58;29.27;;;26.38;;
18251;SDS011;26917;52.328;20.878;2022-08-06T01:17:33;28.98;;;26.05;;
18251;SDS011;26917;52.328;20.878;2022-08-06T01:27:48;26.33;;;23.90;;
18251;SDS011;26917;52.328;20.878;2022-08-06T01:32:12;27.38;;;21.27;;
18251;SDS011;26917;52.328;20.878;2022-08-06T04:02:38;24.88;;;22.35;;
18251;SDS011;26917;52.328;20.878;2022-08-06T04:08:38;23.80;;;20.80;;
18251;SDS011;26917;52.328;20.878;2022-08-06T04:15:26;27.17;;;20.23;;
18251;SDS011;26917;52.328;20.878;2022-08-06T04:22:10;21.77;;;19.20;;
18251;SDS011;26917;52.328;20.878;2022-08-06T04:28:05;22.45;;;20.15;;
18251;SDS011;26917;52.328;20.878;2022-08-06T04:41:11;23.92;;;21.45;;
18251;SDS011;26917;52.328;20.878;2022-08-06T04:50:46;22.52;;;20.38;;
18251;SDS011;26917;52.328;20.878;2022-08-06T05:15:14;42.05;;;39.13;;
18251;SDS011;26917;52.328;20.878;2022-08-06T05:18:17;29.63;;;27.58;;
18251;SDS011;26917;52.328;20.878;2022-08-06T05:21:40;26.02;;;24.25;;
18251;SDS011;26917;52.328;20.878;2022-08-06T05:24:49;24.98;;;23.08;;
18251;SDS011;26917;52.328;20.878;2022-08-06T05:27:37;27.20;;;25.30;;
18251;SDS011;26917;52.328;20.878;2022-08-06T05:37:17;19.98;;;18.35;;
18251;SDS011;26917;52.328;20.878;2022-08-06T05:40:23;24.60;;;22.80;;
18251;SDS011;26917;52.328;20.878;2022-08-06T05:43:26;22.15;;;20.45;;
18251;SDS011;26917;52.328;20.878;2022-08-06T05:46:25;26.00;;;23.95;;
18251;SDS011;26917;52.328;20.878;2022-08-06T05:49:10;16.42;;;15.05;;
18251;SDS011;26917;52.328;20.878;2022-08-06T05:52:45;17.83;;;16.20;;
18251;SDS011;26917;52.328;20.878;2022-08-06T05:55:25;18.02;;;16.45;;
18251;SDS011;26917;52.328;20.878;2022-08-06T06:01:32;17.90;;;16.48;;
18251;SDS011;26917;52.328;20.878;2022-08-06T06:04:16;20.60;;;18.70;;
18251;SDS011;26917;52.328;20.878;2022-08-06T06:07:08;18.33;;;16.73;;
18251;SDS011;26917;52.328;20.878;2022-08-06T06:15:52;18.98;;;17.52;;
18251;SDS011;26917;52.328;20.878;2022-08-06T06:19:02;21.08;;;18.67;;
18251;SDS011;26917;52.328;20.878;2022-08-06T06:22:04;19.70;;;17.83;;
18251;SDS011;26917;52.328;20.878;2022-08-06T06:24:50;22.17;;;19.90;;
18251;SDS011;26917;52.328;20.878;2022-08-06T06:31:19;20.10;;;18.38;;
18251;SDS011;26917;52.328;20.878;2022-08-06T06:34:12;20.63;;;18.80;;
18251;SDS011;26917;52.328;20.878;2022-08-06T06:36:50;18.13;;;16.42;;
18251;SDS011;26917;52.328;20.878;2022-08-06T06:39:25;19.55;;;17.73;;
18251;SDS011;26917;52.328;20.878;2022-08-06T06:42:24;19.80;;;17.30;;
18251;SDS011;26917;52.328;20.878;2022-08-06T06:46:23;14.30;;;13.05;;
18251;SDS011;26917;52.328;20.878;2022-08-06T06:52:44;28.95;;;15.57;;
18251;SDS011;26917;52.328;20.878;2022-08-06T06:58:42;15.80;;;14.30;;
18251;SDS011;26917;52.328;20.878;2022-08-06T07:01:28;16.67;;;15.35;;
18251;SDS011;26917;52.328;20.878;2022-08-06T07:04:00;17.27;;;15.77;;
18251;SDS011;26917;52.328;20.878;2022-08-06T07:06:53;16.10;;;14.80;;
18251;SDS011;26917;52.328;20.878;2022-08-06T07:09:48;17.40;;;16.20;;
18251;SDS011;26917;52.328;20.878;2022-08-06T07:12:51;18.33;;;16.90;;
18251;SDS011;26917;52.328;20.878;2022-08-06T07:15:35;17.17;;;15.88;;
18251;SDS011;26917;52.328;20.878;2022-08-06T07:18:10;15.90;;;14.50;;
18251;SDS011;26917;52.328;20.878;2022-08-06T07:21:34;15.95;;;14.77;;
18251;SDS011;26917;52.328;20.878;2022-08-06T07:24:17;17.20;;;15.82;;
18251;SDS011;26917;52.328;20.878;2022-08-06T07:27:05;15.15;;;13.88;;
18251;SDS011;26917;52.328;20.878;2022-08-06T07:30:08;14.82;;;13.68;;
18251;SDS011;26917;52.328;20.878;2022-08-06T07:32:42;13.48;;;12.25;;
18251;SDS011;26917;52.328;20.878;2022-08-06T07:35:14;13.32;;;12.25;;
18251;SDS011;26917;52.328;20.878;2022-08-06T07:37:49;16.48;;;14.93;;
18251;SDS011;26917;52.328;20.878;2022-08-06T07:40:35;17.55;;;15.93;;
18251;SDS011;26917;52.328;20.878;2022-08-06T07:43:18;16.58;;;15.13;;
18251;SDS011;26917;52.328;20.878;2022-08-06T07:51:38;20.30;;;14.05;;
18251;SDS011;26917;52.328;20.878;2022-08-06T07:54:10;18.55;;;16.67;;
18251;SDS011;26917;52.328;20.878;2022-08-06T07:56:53;14.18;;;11.27;;
18251;SDS011;26917;52.328;20.878;2022-08-06T08:02:51;15.30;;;13.80;;
18251;SDS011;26917;52.328;20.878;2022-08-06T08:06:01;15.00;;;13.60;;
18251;SDS011;26917;52.328;20.878;2022-08-06T08:12:17;15.40;;;13.82;;
18251;SDS011;26917;52.328;20.878;2022-08-06T08:20:09;11.75;;;10.60;;
18251;SDS011;26917;52.328;20.878;2022-08-06T08:28:04;11.35;;;10.35;;
18251;SDS011;26917;52.328;20.878;2022-08-06T08:30:38;15.07;;;11.73;;
18251;SDS011;26917;52.328;20.878;2022-08-06T08:33:38;11.02;;;9.70;;
18251;SDS011;26917;52.328;20.878;2022-08-06T08:36:09;18.92;;;11.18;;
18251;SDS011;26917;52.328;20.878;2022-08-06T08:38:40;17.10;;;11.68;;
18251;SDS011;26917;52.328;20.878;2022-08-06T08:41:11;14.52;;;10.10;;
18251;SDS011;26917;52.328;20.878;2022-08-06T08:43:52;17.73;;;11.63;;
18251;SDS011;26917;52.328;20.878;2022-08-06T08:46:30;11.68;;;10.57;;
18251;SDS011;26917;52.328;20.878;2022-08-06T08:49:07;16.45;;;10.55;;
18251;SDS011;26917;52.328;20.878;2022-08-06T08:51:48;17.80;;;10.73;;
18251;SDS011;26917;52.328;20.878;2022-08-06T08:54:20;12.70;;;9.52;;
18251;SDS011;26917;52.328;20.878;2022-08-06T08:56:51;17.60;;;9.88;;
18251;SDS011;26917;52.328;20.878;2022-08-06T08:59:43;12.63;;;8.77;;
18251;SDS011;26917;52.328;20.878;2022-08-06T09:02:26;13.30;;;9.50;;
18251;SDS011;26917;52.328;20.878;2022-08-06T09:04:56;9.93;;;8.38;;
18251;SDS011;26917;52.328;20.878;2022-08-06T09:07:27;14.02;;;8.88;;
18251;SDS011;26917;52.328;20.878;2022-08-06T09:10:03;12.25;;;8.57;;
18251;SDS011;26917;52.328;20.878;2022-08-06T09:12:37;10.20;;;8.75;;
18251;SDS011;26917;52.328;20.878;2022-08-06T09:15:14;11.43;;;8.77;;
18251;SDS011;26917;52.328;20.878;2022-08-06T09:17:51;17.73;;;9.02;;
18251;SDS011;26917;52.328;20.878;2022-08-06T09:20:39;11.82;;;8.82;;
18251;SDS011;26917;52.328;20.878;2022-08-06T09:23:15;13.95;;;9.13;;
18251;SDS011;26917;52.328;20.878;2022-08-06T09:25:45;15.93;;;8.98;;
18251;SDS011;26917;52.328;20.878;2022-08-06T09:28:29;17.13;;;10.43;;
18251;SDS011;26917;52.328;20.878;2022-08-06T09:31:19;15.70;;;10.50;;
18251;SDS011;26917;52.328;20.878;2022-08-06T09:34:08;17.65;;;10.75;;
18251;SDS011;26917;52.328;20.878;2022-08-06T09:36:57;19.10;;;10.95;;
18251;SDS011;26917;52.328;20.878;2022-08-06T09:39:34;18.40;;;11.57;;
18251;SDS011;26917;52.328;20.878;2022-08-06T09:42:38;18.92;;;10.93;;
18251;SDS011;26917;52.328;20.878;2022-08-06T09:55:28;20.50;;;9.25;;
18251;SDS011;26917;52.328;20.878;2022-08-06T09:58:07;16.58;;;8.43;;
18251;SDS011;26917;52.328;20.878;2022-08-06T10:00:46;18.48;;;8.27;;
18251;SDS011;26917;52.328;20.878;2022-08-06T10:03:16;18.95;;;8.10;;
18251;SDS011;26917;52.328;20.878;2022-08-06T10:06:12;14.45;;;8.25;;
18251;SDS011;26917;52.328;20.878;2022-08-06T10:08:48;14.30;;;8.38;;
18251;SDS011;26917;52.328;20.878;2022-08-06T10:11:40;14.02;;;8.50;;
18251;SDS011;26917;52.328;20.878;2022-08-06T10:14:22;16.45;;;8.68;;
18251;SDS011;26917;52.328;20.878;2022-08-06T10:20:17;16.60;;;8.45;;
18251;SDS011;26917;52.328;20.878;2022-08-06T10:22:54;12.55;;;8.30;;
18251;SDS011;26917;52.328;20.878;2022-08-06T10:25:36;14.50;;;9.35;;
18251;SDS011;26917;52.328;20.878;2022-08-06T10:28:49;17.45;;;8.57;;
18251;SDS011;26917;52.328;20.878;2022-08-06T10:31:20;19.20;;;9.13;;
18251;SDS011;26917;52.328;20.878;2022-08-06T10:36:44;15.10;;;8.25;;
18251;SDS011;26917;52.328;20.878;2022-08-06T10:39:18;19.23;;;8.95;;
18251;SDS011;26917;52.328;20.878;2022-08-06T10:42:19;19.17;;;7.78;;
18251;SDS011;26917;52.328;20.878;2022-08-06T10:47:46;16.83;;;8.85;;
18251;SDS011;26917;52.328;20.878;2022-08-06T10:50:37;12.43;;;7.82;;
18251;SDS011;26917;52.328;20.878;2022-08-06T10:53:21;13.68;;;8.75;;
18251;SDS011;26917;52.328;20.878;2022-08-06T10:56:14;13.85;;;9.13;;
18251;SDS011;26917;52.328;20.878;2022-08-06T10:58:57;14.43;;;8.52;;
18251;SDS011;26917;52.328;20.878;2022-08-06T11:01:29;19.75;;;8.60;;
18251;SDS011;26917;52.328;20.878;2022-08-06T11:04:16;18.42;;;8.57;;
18251;SDS011;26917;52.328;20.878;2022-08-06T11:07:04;12.85;;;7.93;;
18251;SDS011;26917;52.328;20.878;2022-08-06T11:10:18;16.55;;;8.15;;
18251;SDS011;26917;52.328;20.878;2022-08-06T11:13:08;24.70;;;8.57;;
18251;SDS011;26917;52.328;20.878;2022-08-06T11:15:43;17.75;;;8.20;;
18251;SDS011;26917;52.328;20.878;2022-08-06T11:18:16;20.48;;;8.10;;
18251;SDS011;26917;52.328;20.878;2022-08-06T11:20:53;18.85;;;8.10;;
18251;SDS011;26917;52.328;20.878;2022-08-06T11:23:36;17.63;;;7.22;;
18251;SDS011;26917;52.328;20.878;2022-08-06T11:26:33;15.20;;;7.57;;
18251;SDS011;26917;52.328;20.878;2022-08-06T11:29:10;49.15;;;9.23;;
18251;SDS011;26917;52.328;20.878;2022-08-06T11:31:42;10.80;;;6.90;;
18251;SDS011;26917;52.328;20.878;2022-08-06T11:43:43;18.77;;;7.78;;
18251;SDS011;26917;52.328;20.878;2022-08-06T11:46:30;12.90;;;7.63;;
18251;SDS011;26917;52.328;20.878;2022-08-06T11:49:15;12.80;;;8.10;;
18251;SDS011;26917;52.328;20.878;2022-08-06T11:55:02;21.15;;;8.27;;
18251;SDS011;26917;52.328;20.878;2022-08-06T11:57:34;32.60;;;9.20;;
18251;SDS011;26917;52.328;20.878;2022-08-06T12:00:18;111.57;;;15.60;;
18251;SDS011;26917;52.328;20.878;2022-08-06T12:02:53;20.10;;;9.65;;
18251;SDS011;26917;52.328;20.878;2022-08-06T12:05:39;21.08;;;9.40;;
18251;SDS011;26917;52.328;20.878;2022-08-06T12:08:26;15.93;;;9.27;;
18251;SDS011;26917;52.328;20.878;2022-08-06T12:14:04;27.33;;;9.75;;
18251;SDS011;26917;52.328;20.878;2022-08-06T12:17:07;17.60;;;8.90;;
18251;SDS011;26917;52.328;20.878;2022-08-06T12:19:42;17.92;;;8.85;;
18251;SDS011;26917;52.328;20.878;2022-08-06T12:22:30;22.42;;;8.45;;
18251;SDS011;26917;52.328;20.878;2022-08-06T12:25:03;30.33;;;9.98;;
18251;SDS011;26917;52.328;20.878;2022-08-06T12:27:38;26.70;;;10.77;;
18251;SDS011;26917;52.328;20.878;2022-08-06T12:30:26;19.67;;;12.48;;
18251;SDS011;26917;52.328;20.878;2022-08-06T12:33:59;23.75;;;13.02;;
18251;SDS011;26917;52.328;20.878;2022-08-06T12:36:29;26.23;;;12.77;;
18251;SDS011;26917;52.328;20.878;2022-08-06T12:39:04;18.38;;;11.80;;
18251;SDS011;26917;52.328;20.878;2022-08-06T12:44:31;25.00;;;13.52;;
18251;SDS011;26917;52.328;20.878;2022-08-06T12:47:20;23.50;;;13.27;;
18251;SDS011;26917;52.328;20.878;2022-08-06T12:50:16;32.72;;;14.20;;
18251;SDS011;26917;52.328;20.878;2022-08-06T12:53:02;26.73;;;14.05;;
18251;SDS011;26917;52.328;20.878;2022-08-06T12:55:34;26.17;;;16.17;;
18251;SDS011;26917;52.328;20.878;2022-08-06T12:58:10;35.28;;;15.77;;
18251;SDS011;26917;52.328;20.878;2022-08-06T13:01:01;27.08;;;14.45;;
18251;SDS011;26917;52.328;20.878;2022-08-06T13:03:45;26.45;;;13.80;;
18251;SDS011;26917;52.328;20.878;2022-08-06T13:06:28;28.98;;;12.60;;
18251;SDS011;26917;52.328;20.878;2022-08-06T13:09:02;18.42;;;13.32;;
18251;SDS011;26917;52.328;20.878;2022-08-06T13:11:33;23.77;;;13.23;;
18251;SDS011;26917;52.328;20.878;2022-08-06T13:14:09;23.70;;;12.75;;
18251;SDS011;26917;52.328;20.878;2022-08-06T13:16:48;15.95;;;12.75;;
18251;SDS011;26917;52.328;20.878;2022-08-06T13:19:23;19.38;;;12.50;;
18251;SDS011;26917;52.328;20.878;2022-08-06T13:25:08;16.58;;;12.95;;
18251;SDS011;26917;52.328;20.878;2022-08-06T13:28:06;20.63;;;12.50;;
18251;SDS011;26917;52.328;20.878;2022-08-06T13:31:25;21.25;;;12.00;;
18251;SDS011;26917;52.328;20.878;2022-08-06T13:45:55;14.13;;;12.57;;
18251;SDS011;26917;52.328;20.878;2022-08-06T13:51:29;12.27;;;9.48;;
18251;SDS011;26917;52.328;20.878;2022-08-06T13:54:22;13.73;;;10.02;;
18251;SDS011;26917;52.328;20.878;2022-08-06T13:57:03;12.25;;;9.48;;
18251;SDS011;26917;52.328;20.878;2022-08-06T14:00:28;9.70;;;8.80;;
18251;SDS011;26917;52.328;20.878;2022-08-06T14:03:25;9.45;;;8.07;;
18251;SDS011;26917;52.328;20.878;2022-08-06T14:06:13;12.30;;;7.75;;
18251;SDS011;26917;52.328;20.878;2022-08-06T14:12:32;10.10;;;8.07;;
18251;SDS011;26917;52.328;20.878;2022-08-06T14:21:39;8.00;;;7.30;;
18251;SDS011;26917;52.328;20.878;2022-08-06T14:24:13;10.52;;;9.52;;
18251;SDS011;26917;52.328;20.878;2022-08-06T14:26:50;11.20;;;8.65;;
18251;SDS011;26917;52.328;20.878;2022-08-06T14:32:33;9.43;;;8.27;;
18251;SDS011;26917;52.328;20.878;2022-08-06T14:35:31;12.07;;;10.73;;
18251;SDS011;26917;52.328;20.878;2022-08-06T14:57:58;12.40;;;11.35;;
18251;SDS011;26917;52.328;20.878;2022-08-06T15:13:45;12.25;;;11.45;;
18251;SDS011;26917;52.328;20.878;2022-08-06T15:17:01;10.95;;;10.07;;
18251;SDS011;26917;52.328;20.878;2022-08-06T15:27:57;5.38;;;4.70;;
18251;SDS011;26917;52.328;20.878;2022-08-06T15:30:52;8.32;;;5.03;;
18251;SDS011;26917;52.328;20.878;2022-08-06T15:36:41;6.88;;;5.53;;
18251;SDS011;26917;52.328;20.878;2022-08-06T15:40:10;6.85;;;5.47;;
18251;SDS011;26917;52.328;20.878;2022-08-06T15:43:24;7.38;;;6.60;;
18251;SDS011;26917;52.328;20.878;2022-08-06T15:55:24;122.82;;;115.80;;
18251;SDS011;26917;52.328;20.878;2022-08-06T15:58:13;121.70;;;115.60;;
18251;SDS011;26917;52.328;20.878;2022-08-06T16:08:35;94.68;;;89.35;;
18251;SDS011;26917;52.328;20.878;2022-08-06T16:14:50;84.03;;;79.55;;
18251;SDS011;26917;52.328;20.878;2022-08-06T16:24:55;99.50;;;93.85;;
18251;SDS011;26917;52.328;20.878;2022-08-06T16:32:58;84.20;;;79.57;;
18251;SDS011;26917;52.328;20.878;2022-08-06T16:36:10;67.70;;;63.10;;
18251;SDS011;26917;52.328;20.878;2022-08-06T16:39:57;81.30;;;76.47;;
18251;SDS011;26917;52.328;20.878;2022-08-06T16:43:01;79.80;;;75.43;;
18251;SDS011;26917;52.328;20.878;2022-08-06T16:47:24;85.97;;;81.22;;
18251;SDS011;26917;52.328;20.878;2022-08-06T16:55:13;86.97;;;82.00;;
18251;SDS011;26917;52.328;20.878;2022-08-06T17:01:54;70.80;;;67.18;;
18251;SDS011;26917;52.328;20.878;2022-08-06T17:11:43;77.38;;;73.10;;
18251;SDS011;26917;52.328;20.878;2022-08-06T17:31:47;61.75;;;58.10;;
18251;SDS011;26917;52.328;20.878;2022-08-06T17:43:44;64.30;;;60.50;;
18251;SDS011;26917;52.328;20.878;2022-08-06T17:47:30;57.88;;;53.90;;
18251;SDS011;26917;52.328;20.878;2022-08-06T17:51:04;57.15;;;53.78;;
18251;SDS011;26917;52.328;20.878;2022-08-06T18:03:42;60.95;;;57.08;;
18251;SDS011;26917;52.328;20.878;2022-08-06T18:22:43;57.13;;;53.60;;
18251;SDS011;26917;52.328;20.878;2022-08-06T18:30:38;56.53;;;53.03;;
18251;SDS011;26917;52.328;20.878;2022-08-06T18:34:20;53.63;;;50.33;;
18251;SDS011;26917;52.328;20.878;2022-08-06T18:46:57;56.47;;;53.03;;
18251;SDS011;26917;52.328;20.878;2022-08-06T18:50:29;61.20;;;57.03;;
18251;SDS011;26917;52.328;20.878;2022-08-06T18:56:59;59.67;;;55.88;;
18251;SDS011;26917;52.328;20.878;2022-08-06T19:00:07;59.75;;;55.72;;
18251;SDS011;26917;52.328;20.878;2022-08-06T19:07:05;57.80;;;54.60;;
18251;SDS011;26917;52.328;20.878;2022-08-06T19:10:35;57.90;;;54.63;;
18251;SDS011;26917;52.328;20.878;2022-08-06T19:13:14;63.25;;;59.33;;
18251;SDS011;26917;52.328;20.878;2022-08-06T19:16:51;57.75;;;54.13;;
18251;SDS011;26917;52.328;20.878;2022-08-06T20:14:31;56.53;;;52.85;;
18251;SDS011;26917;52.328;20.878;2022-08-06T20:17:07;59.53;;;55.83;;
18251;SDS011;26917;52.328;20.878;2022-08-06T20:23:56;58.92;;;54.65;;
18251;SDS011;26917;52.328;20.878;2022-08-06T22:31:17;55.58;;;51.95;;
18251;SDS011;26917;52.328;20.878;2022-08-06T22:35:20;51.08;;;48.08;;
18251;SDS011;26917;52.328;20.878;2022-08-06T22:46:20;54.97;;;51.72;;
18251;SDS011;26917;52.328;20.878;2022-08-06T22:49:40;53.05;;;49.80;;
18251;SDS011;26917;52.328;20.878;2022-08-06T22:53:19;50.90;;;47.78;;
18251;SDS011;26917;52.328;20.878;2022-08-06T22:56:50;59.85;;;56.08;;
18251;SDS011;26917;52.328;20.878;2022-08-06T22:59:33;58.15;;;54.05;;
18251;SDS011;26917;52.328;20.878;2022-08-06T23:05:14;56.78;;;53.25;;
18251;SDS011;26917;52.328;20.878;2022-08-06T23:11:21;49.92;;;47.15;;
18251;SDS011;26917;52.328;20.878;2022-08-06T23:14:01;53.90;;;50.92;;
18251;SDS011;26917;52.328;20.878;2022-08-06T23:17:08;57.67;;;54.45;;
18251;SDS011;26917;52.328;20.878;2022-08-06T23:21:11;49.17;;;46.30;;
18251;SDS011;26917;52.328;20.878;2022-08-06T23:24:54;50.45;;;47.25;;
18251;SDS011;26917;52.328;20.878;2022-08-06T23:32:26;46.85;;;43.65;;
18251;SDS011;26917;52.328;20.878;2022-08-06T23:35:18;50.03;;;46.95;;
18251;SDS011;26917;52.328;20.878;2022-08-06T23:42:08;47.97;;;45.00;;
18251;SDS011;26917;52.328;20.878;2022-08-06T23:44:50;47.13;;;43.85;;
18251;SDS011;26917;52.328;20.878;2022-08-06T23:48:21;49.63;;;46.42;;
18251;SDS011;26917;52.328;20.878;2022-08-06T23:55:48;37.45;;;35.42;;
18251;SDS011;26917;52.328;20.878;2022-08-06T23:59:00;35.78;;;33.65;;
